Venetie, Alaska
Current Conditions -  °F | °C
As of 8:56 AM on Sunday 21 Dec 2014 (Local Time) from PFYU Reporting Station
Clear Clear  
Wind Chill: -10°   Ceiling: Unl
Heat Index:   Visibility: 10mi
Dew Point: -6°   Wind: 5mph
Humidity: 78%   Direction: 40°NE
Pressure: 29.38"   Gusts: NA
Location:  67.02°N, 146.43°W
Report Text: PFYU 211756Z 04004KT 10SM CLR M18/M21 A2938 RMK AO1 11180 21200 52010
Loading
Personal Weather Stations






























Interactive Weather Map New forecast layout! Learn more

10-Day Weather Forecast

Advertisements
Track Severe Weather on mobile